sensor_id;sensor_type;location;lat;lon;timestamp;pressure;altitude;pressure_sealevel;temperature;humidity
13235;BME280;6683;48.506;9.050;2023-05-13T00:02:47;98014.00;;;15.57;67.36
13235;BME280;6683;48.506;9.050;2023-05-13T00:05:49;98011.81;;;15.54;67.48
13235;BME280;6683;48.506;9.050;2023-05-13T00:08:53;98007.38;;;15.48;67.45
13235;BME280;6683;48.506;9.050;2023-05-13T00:11:56;98016.59;;;15.45;67.77
13235;BME280;6683;48.506;9.050;2023-05-13T00:14:58;98000.44;;;15.40;67.85
13235;BME280;6683;48.506;9.050;2023-05-13T00:18:00;98000.91;;;15.37;67.90
13235;BME280;6683;48.506;9.050;2023-05-13T00:21:03;98001.56;;;15.33;67.82
13235;BME280;6683;48.506;9.050;2023-05-13T00:24:08;97998.50;;;15.29;67.92
13235;BME280;6683;48.506;9.050;2023-05-13T00:27:11;98006.13;;;15.26;68.01
13235;BME280;6683;48.506;9.050;2023-05-13T00:30:13;97998.81;;;15.21;68.11
13235;BME280;6683;48.506;9.050;2023-05-13T00:33:16;97998.44;;;15.17;68.02
13235;BME280;6683;48.506;9.050;2023-05-13T00:36:18;98008.50;;;15.15;67.89
13235;BME280;6683;48.506;9.050;2023-05-13T00:39:22;98005.47;;;15.12;68.19
13235;BME280;6683;48.506;9.050;2023-05-13T00:42:24;98010.97;;;15.10;68.25
13235;BME280;6683;48.506;9.050;2023-05-13T00:45:27;98013.03;;;15.08;68.27
13235;BME280;6683;48.506;9.050;2023-05-13T00:48:30;98007.38;;;15.05;68.34
13235;BME280;6683;48.506;9.050;2023-05-13T00:51:33;98010.03;;;15.05;68.29
13235;BME280;6683;48.506;9.050;2023-05-13T00:54:38;98014.50;;;15.04;68.29
13235;BME280;6683;48.506;9.050;2023-05-13T00:57:41;98009.66;;;15.01;68.43
13235;BME280;6683;48.506;9.050;2023-05-13T01:00:51;98014.38;;;14.99;68.71
13235;BME280;6683;48.506;9.050;2023-05-13T01:04:06;98012.72;;;14.98;68.81
13235;BME280;6683;48.506;9.050;2023-05-13T01:07:18;98006.00;;;14.96;68.93
13235;BME280;6683;48.506;9.050;2023-05-13T01:10:33;98005.22;;;14.95;69.16
13235;BME280;6683;48.506;9.050;2023-05-13T01:13:37;98007.88;;;14.95;68.80
13235;BME280;6683;48.506;9.050;2023-05-13T01:16:51;98012.59;;;14.93;69.04
13235;BME280;6683;48.506;9.050;2023-05-13T01:19:55;98014.81;;;14.96;68.87
13235;BME280;6683;48.506;9.050;2023-05-13T01:23:00;98011.31;;;14.96;68.84
13235;BME280;6683;48.506;9.050;2023-05-13T01:26:04;98008.47;;;14.97;68.64
13235;BME280;6683;48.506;9.050;2023-05-13T01:29:06;98018.28;;;14.97;68.76
13235;BME280;6683;48.506;9.050;2023-05-13T01:32:10;98013.97;;;14.96;69.01
13235;BME280;6683;48.506;9.050;2023-05-13T01:35:13;98014.81;;;14.96;68.86
13235;BME280;6683;48.506;9.050;2023-05-13T01:38:19;98020.94;;;14.97;68.88
13235;BME280;6683;48.506;9.050;2023-05-13T01:41:22;98015.84;;;14.95;68.71
13235;BME280;6683;48.506;9.050;2023-05-13T01:44:25;98025.44;;;14.96;69.00
13235;BME280;6683;48.506;9.050;2023-05-13T01:47:27;98020.34;;;14.95;68.75
13235;BME280;6683;48.506;9.050;2023-05-13T01:50:30;98020.34;;;14.95;68.89
13235;BME280;6683;48.506;9.050;2023-05-13T01:53:33;98017.09;;;14.93;69.00
13235;BME280;6683;48.506;9.050;2023-05-13T01:56:36;98024.00;;;14.94;68.97
13235;BME280;6683;48.506;9.050;2023-05-13T01:59:38;98024.00;;;14.94;69.26
13235;BME280;6683;48.506;9.050;2023-05-13T02:02:41;98015.84;;;14.95;68.92
13235;BME280;6683;48.506;9.050;2023-05-13T02:05:45;98024.63;;;14.96;69.43
13235;BME280;6683;48.506;9.050;2023-05-13T02:08:49;98027.06;;;14.97;69.16
13235;BME280;6683;48.506;9.050;2023-05-13T02:11:51;98029.72;;;14.97;69.31
13235;BME280;6683;48.506;9.050;2023-05-13T02:14:54;98030.31;;;14.99;69.38
13235;BME280;6683;48.506;9.050;2023-05-13T02:17:57;98031.13;;;15.00;69.45
13235;BME280;6683;48.506;9.050;2023-05-13T02:20:59;98027.44;;;15.01;69.20
13235;BME280;6683;48.506;9.050;2023-05-13T02:24:03;98027.44;;;15.01;69.29
13235;BME280;6683;48.506;9.050;2023-05-13T02:27:06;98027.44;;;15.01;69.28
13235;BME280;6683;48.506;9.050;2023-05-13T02:30:09;98024.56;;;15.02;69.51
13235;BME280;6683;48.506;9.050;2023-05-13T02:33:12;98026.41;;;15.02;69.38
13235;BME280;6683;48.506;9.050;2023-05-13T02:36:15;98026.41;;;15.02;69.25
13235;BME280;6683;48.506;9.050;2023-05-13T02:39:18;98022.34;;;14.99;69.56
13235;BME280;6683;48.506;9.050;2023-05-13T02:42:21;98021.53;;;14.99;69.53
13235;BME280;6683;48.506;9.050;2023-05-13T02:45:23;98032.97;;;14.99;69.54
13235;BME280;6683;48.506;9.050;2023-05-13T02:48:26;98032.16;;;14.99;69.64
13235;BME280;6683;48.506;9.050;2023-05-13T02:51:29;98030.31;;;14.99;69.53
13235;BME280;6683;48.506;9.050;2023-05-13T02:54:33;98033.19;;;14.98;69.49
13235;BME280;6683;48.506;9.050;2023-05-13T02:57:35;98028.91;;;14.97;69.77
13235;BME280;6683;48.506;9.050;2023-05-13T03:00:38;98019.28;;;14.96;69.58
13235;BME280;6683;48.506;9.050;2023-05-13T03:03:40;98023.59;;;14.97;69.73
13235;BME280;6683;48.506;9.050;2023-05-13T03:06:43;98015.84;;;14.95;69.43
13235;BME280;6683;48.506;9.050;2023-05-13T03:09:46;98015.44;;;14.92;69.81
13235;BME280;6683;48.506;9.050;2023-05-13T03:12:49;98018.34;;;14.90;69.41
13235;BME280;6683;48.506;9.050;2023-05-13T03:15:51;98022.63;;;14.91;69.70
13235;BME280;6683;48.506;9.050;2023-05-13T03:18:54;98027.53;;;14.88;69.60
13235;BME280;6683;48.506;9.050;2023-05-13T03:21:56;98020.81;;;14.85;69.75
13235;BME280;6683;48.506;9.050;2023-05-13T03:25:00;98030.66;;;14.85;69.56
13235;BME280;6683;48.506;9.050;2023-05-13T03:28:04;98023.47;;;14.85;69.82
13235;BME280;6683;48.506;9.050;2023-05-13T03:31:06;98024.94;;;14.81;69.59
13235;BME280;6683;48.506;9.050;2023-05-13T03:34:09;98036.16;;;14.83;69.86
13235;BME280;6683;48.506;9.050;2023-05-13T03:37:11;98036.16;;;14.83;69.75
13235;BME280;6683;48.506;9.050;2023-05-13T03:40:15;98037.00;;;14.84;69.95
13235;BME280;6683;48.506;9.050;2023-05-13T03:43:18;98035.16;;;14.84;69.98
13235;BME280;6683;48.506;9.050;2023-05-13T03:46:20;98042.91;;;14.86;69.74
13235;BME280;6683;48.506;9.050;2023-05-13T03:49:23;98046.38;;;14.86;69.78
13235;BME280;6683;48.506;9.050;2023-05-13T03:52:26;98042.06;;;14.85;69.87
13235;BME280;6683;48.506;9.050;2023-05-13T03:55:30;98043.72;;;14.86;69.88
13235;BME280;6683;48.506;9.050;2023-05-13T03:58:32;98046.38;;;14.86;69.95
13235;BME280;6683;48.506;9.050;2023-05-13T04:01:35;98047.19;;;14.87;70.03
13235;BME280;6683;48.506;9.050;2023-05-13T04:04:37;98049.25;;;14.85;69.86
13235;BME280;6683;48.506;9.050;2023-05-13T04:07:40;98048.44;;;14.84;69.77
13235;BME280;6683;48.506;9.050;2023-05-13T04:10:44;98041.72;;;14.82;69.72
13235;BME280;6683;48.506;9.050;2023-05-13T04:13:46;98048.66;;;14.83;69.90
13235;BME280;6683;48.506;9.050;2023-05-13T04:16:49;98050.91;;;14.79;69.65
13235;BME280;6683;48.506;9.050;2023-05-13T04:19:52;98050.13;;;14.79;69.88
13235;BME280;6683;48.506;9.050;2023-05-13T04:22:54;98059.34;;;14.76;69.76
13235;BME280;6683;48.506;9.050;2023-05-13T04:25:58;98063.22;;;14.74;69.79
13235;BME280;6683;48.506;9.050;2023-05-13T04:29:00;98066.91;;;14.73;69.82
13235;BME280;6683;48.506;9.050;2023-05-13T04:32:03;98063.47;;;14.72;69.66
13235;BME280;6683;48.506;9.050;2023-05-13T04:35:07;98068.78;;;14.72;69.76
13235;BME280;6683;48.506;9.050;2023-05-13T04:38:09;98067.34;;;14.70;69.96
13235;BME280;6683;48.506;9.050;2023-05-13T04:41:14;98075.53;;;14.68;69.72
13235;BME280;6683;48.506;9.050;2023-05-13T04:44:16;98081.66;;;14.69;69.48
13235;BME280;6683;48.506;9.050;2023-05-13T04:47:18;98080.84;;;14.68;69.77
13235;BME280;6683;48.506;9.050;2023-05-13T04:50:21;98084.75;;;14.66;69.46
13235;BME280;6683;48.506;9.050;2023-05-13T04:53:23;98085.75;;;14.65;69.74
13235;BME280;6683;48.506;9.050;2023-05-13T04:56:28;98086.59;;;14.65;69.60
13235;BME280;6683;48.506;9.050;2023-05-13T04:59:30;98083.13;;;14.65;69.62
13235;BME280;6683;48.506;9.050;2023-05-13T05:02:33;98078.03;;;14.63;69.59
13235;BME280;6683;48.506;9.050;2023-05-13T05:05:35;98090.28;;;14.64;69.60
13235;BME280;6683;48.506;9.050;2023-05-13T05:08:37;98088.41;;;14.65;69.60
13235;BME280;6683;48.506;9.050;2023-05-13T05:11:41;98093.97;;;14.63;69.56
13235;BME280;6683;48.506;9.050;2023-05-13T05:14:44;98093.97;;;14.63;69.45
13235;BME280;6683;48.506;9.050;2023-05-13T05:17:46;98096.41;;;14.65;69.54
13235;BME280;6683;48.506;9.050;2023-05-13T05:20:48;98101.53;;;14.66;69.70
13235;BME280;6683;48.506;9.050;2023-05-13T05:23:50;98103.72;;;14.69;69.62
13235;BME280;6683;48.506;9.050;2023-05-13T05:26:55;98101.06;;;14.69;69.58
13235;BME280;6683;48.506;9.050;2023-05-13T05:29:57;98104.09;;;14.73;69.44
13235;BME280;6683;48.506;9.050;2023-05-13T05:33:00;98103.69;;;14.76;69.41
13235;BME280;6683;48.506;9.050;2023-05-13T05:36:03;98110.84;;;14.75;69.49
13235;BME280;6683;48.506;9.050;2023-05-13T05:39:07;98123.94;;;14.77;69.37
13235;BME280;6683;48.506;9.050;2023-05-13T05:42:12;98120.44;;;14.76;69.56
13235;BME280;6683;48.506;9.050;2023-05-13T05:45:14;98118.41;;;14.78;69.48
13235;BME280;6683;48.506;9.050;2023-05-13T05:48:17;98122.66;;;14.79;69.51
13235;BME280;6683;48.506;9.050;2023-05-13T05:51:19;98125.72;;;14.83;69.35
13235;BME280;6683;48.506;9.050;2023-05-13T05:54:21;98123.66;;;14.85;69.41
13235;BME280;6683;48.506;9.050;2023-05-13T05:57:27;98126.09;;;14.86;69.41
13235;BME280;6683;48.506;9.050;2023-05-13T06:00:29;98128.34;;;14.89;69.05
13235;BME280;6683;48.506;9.050;2023-05-13T06:03:32;98120.38;;;14.89;69.27
13235;BME280;6683;48.506;9.050;2023-05-13T06:06:35;98119.53;;;14.89;69.01
13235;BME280;6683;48.506;9.050;2023-05-13T06:09:39;98121.97;;;14.90;69.32
13235;BME280;6683;48.506;9.050;2023-05-13T06:12:42;98128.13;;;14.91;69.08
13235;BME280;6683;48.506;9.050;2023-05-13T06:15:45;98137.94;;;14.90;69.07
13235;BME280;6683;48.506;9.050;2023-05-13T06:18:47;98144.28;;;14.89;69.21
13235;BME280;6683;48.506;9.050;2023-05-13T06:21:49;98134.66;;;14.88;69.35
13235;BME280;6683;48.506;9.050;2023-05-13T06:24:52;98139.16;;;14.88;69.26
13235;BME280;6683;48.506;9.050;2023-05-13T06:27:56;98142.66;;;14.88;68.91
13235;BME280;6683;48.506;9.050;2023-05-13T06:30:58;98141.41;;;14.91;69.15
13235;BME280;6683;48.506;9.050;2023-05-13T06:34:01;98138.09;;;14.95;69.21
13235;BME280;6683;48.506;9.050;2023-05-13T06:37:04;98137.66;;;14.98;69.15
13235;BME280;6683;48.506;9.050;2023-05-13T06:40:08;98139.91;;;15.01;69.35
13235;BME280;6683;48.506;9.050;2023-05-13T06:43:22;98129.03;;;15.03;69.14
13235;BME280;6683;48.506;9.050;2023-05-13T06:46:25;98134.97;;;15.05;68.74
13235;BME280;6683;48.506;9.050;2023-05-13T06:49:27;98138.00;;;15.08;68.82
13235;BME280;6683;48.506;9.050;2023-05-13T06:52:29;98134.09;;;15.11;68.93
13235;BME280;6683;48.506;9.050;2023-05-13T06:55:32;98145.09;;;15.14;68.93
13235;BME280;6683;48.506;9.050;2023-05-13T06:58:42;98142.84;;;15.18;68.82
13235;BME280;6683;48.506;9.050;2023-05-13T07:01:44;98137.06;;;15.21;68.66
13235;BME280;6683;48.506;9.050;2023-05-13T07:04:47;98147.50;;;15.23;68.68
13235;BME280;6683;48.506;9.050;2023-05-13T07:07:49;98153.44;;;15.25;68.52
13235;BME280;6683;48.506;9.050;2023-05-13T07:10:53;98156.88;;;15.25;68.48
13235;BME280;6683;48.506;9.050;2023-05-13T07:13:57;98155.03;;;15.26;68.44
13235;BME280;6683;48.506;9.050;2023-05-13T07:16:59;98142.13;;;15.29;68.33
13235;BME280;6683;48.506;9.050;2023-05-13T07:20:04;98148.84;;;15.32;68.32
13235;BME280;6683;48.506;9.050;2023-05-13T07:23:06;98150.63;;;15.38;68.25
13235;BME280;6683;48.506;9.050;2023-05-13T07:26:09;98155.75;;;15.46;68.19
13235;BME280;6683;48.506;9.050;2023-05-13T07:29:13;98147.69;;;15.52;68.04
13235;BME280;6683;48.506;9.050;2023-05-13T07:32:15;98155.19;;;15.62;67.74
13235;BME280;6683;48.506;9.050;2023-05-13T07:35:18;98144.91;;;15.65;67.38
13235;BME280;6683;48.506;9.050;2023-05-13T07:38:20;98149.56;;;15.70;67.39
13235;BME280;6683;48.506;9.050;2023-05-13T07:41:23;98148.09;;;15.74;67.28
13235;BME280;6683;48.506;9.050;2023-05-13T07:44:27;98150.75;;;15.74;67.09
13235;BME280;6683;48.506;9.050;2023-05-13T07:47:30;98151.41;;;15.69;67.04
13235;BME280;6683;48.506;9.050;2023-05-13T07:50:33;98156.72;;;15.69;67.28
13235;BME280;6683;48.506;9.050;2023-05-13T07:53:35;98156.72;;;15.69;67.23
13235;BME280;6683;48.506;9.050;2023-05-13T07:56:37;98147.50;;;15.72;67.42
13235;BME280;6683;48.506;9.050;2023-05-13T07:59:41;98159.31;;;15.76;67.11
13235;BME280;6683;48.506;9.050;2023-05-13T08:02:44;98160.16;;;15.76;66.99
13235;BME280;6683;48.506;9.050;2023-05-13T08:05:46;98157.31;;;15.71;66.87
13235;BME280;6683;48.506;9.050;2023-05-13T08:08:49;98162.66;;;15.71;67.14
13235;BME280;6683;48.506;9.050;2023-05-13T08:11:52;98159.97;;;15.71;67.09
13235;BME280;6683;48.506;9.050;2023-05-13T08:14:56;98162.22;;;15.74;67.17
13235;BME280;6683;48.506;9.050;2023-05-13T08:17:59;98162.59;;;15.78;67.21
13235;BME280;6683;48.506;9.050;2023-05-13T08:21:01;98160.50;;;15.80;67.10
13235;BME280;6683;48.506;9.050;2023-05-13T08:24:05;98163.78;;;15.82;67.09
13235;BME280;6683;48.506;9.050;2023-05-13T08:27:08;98159.03;;;15.84;66.89
13235;BME280;6683;48.506;9.050;2023-05-13T08:30:15;98163.94;;;15.87;67.44
13235;BME280;6683;48.506;9.050;2023-05-13T08:33:18;98157.38;;;15.89;67.28
13235;BME280;6683;48.506;9.050;2023-05-13T08:36:20;98160.38;;;15.93;67.27
13235;BME280;6683;48.506;9.050;2023-05-13T08:39:23;98159.94;;;15.96;67.11
13235;BME280;6683;48.506;9.050;2023-05-13T08:42:28;98156.25;;;15.97;67.15
13235;BME280;6683;48.506;9.050;2023-05-13T08:45:35;98162.75;;;16.01;67.09
13235;BME280;6683;48.506;9.050;2023-05-13T08:48:41;98160.69;;;16.03;66.88
13235;BME280;6683;48.506;9.050;2023-05-13T08:51:43;98168.66;;;16.03;66.91
13235;BME280;6683;48.506;9.050;2023-05-13T08:54:47;98172.50;;;16.07;66.85
13235;BME280;6683;48.506;9.050;2023-05-13T08:57:50;98172.09;;;16.10;66.81
13235;BME280;6683;48.506;9.050;2023-05-13T09:00:54;98168.97;;;16.13;66.68
13235;BME280;6683;48.506;9.050;2023-05-13T09:04:00;98169.94;;;16.19;66.75
13235;BME280;6683;48.506;9.050;2023-05-13T09:07:03;98170.31;;;16.22;66.76
13235;BME280;6683;48.506;9.050;2023-05-13T09:10:08;98173.56;;;16.24;66.60
13235;BME280;6683;48.506;9.050;2023-05-13T09:13:11;98174.72;;;16.28;66.46
13235;BME280;6683;48.506;9.050;2023-05-13T09:16:15;98178.00;;;16.30;66.18
13235;BME280;6683;48.506;9.050;2023-05-13T09:19:18;98175.09;;;16.32;66.26
13235;BME280;6683;48.506;9.050;2023-05-13T09:22:20;98171.19;;;16.34;66.08
13235;BME280;6683;48.506;9.050;2023-05-13T09:25:24;98169.56;;;16.33;65.94
13235;BME280;6683;48.506;9.050;2023-05-13T09:28:27;98173.59;;;16.36;66.13
13235;BME280;6683;48.506;9.050;2023-05-13T09:31:33;98171.34;;;16.39;66.24
13235;BME280;6683;48.506;9.050;2023-05-13T09:34:36;98168.19;;;16.42;66.06
13235;BME280;6683;48.506;9.050;2023-05-13T09:37:38;98169.19;;;16.48;65.70
13235;BME280;6683;48.506;9.050;2023-05-13T09:40:41;98165.25;;;16.50;65.86
13235;BME280;6683;48.506;9.050;2023-05-13T09:43:50;98180.56;;;16.55;65.58
13235;BME280;6683;48.506;9.050;2023-05-13T09:46:54;98185.91;;;16.55;65.85
13235;BME280;6683;48.506;9.050;2023-05-13T09:49:57;98185.66;;;16.56;65.40
13235;BME280;6683;48.506;9.050;2023-05-13T09:53:09;98188.34;;;16.56;65.98
13235;BME280;6683;48.506;9.050;2023-05-13T09:56:12;98187.31;;;16.57;65.33
13235;BME280;6683;48.506;9.050;2023-05-13T09:59:15;98185.47;;;16.58;65.52
13235;BME280;6683;48.506;9.050;2023-05-13T10:02:20;98185.47;;;16.58;65.54
13235;BME280;6683;48.506;9.050;2023-05-13T10:05:23;98191.38;;;16.60;65.36
13235;BME280;6683;48.506;9.050;2023-05-13T10:08:27;98197.53;;;16.60;65.22
13235;BME280;6683;48.506;9.050;2023-05-13T10:11:32;98193.00;;;16.61;65.38
13235;BME280;6683;48.506;9.050;2023-05-13T10:14:36;98193.81;;;16.61;65.12
13235;BME280;6683;48.506;9.050;2023-05-13T10:17:41;98196.50;;;16.61;65.16
13235;BME280;6683;48.506;9.050;2023-05-13T10:20:45;98196.25;;;16.63;65.40
13235;BME280;6683;48.506;9.050;2023-05-13T10:23:52;98196.63;;;16.66;65.18
13235;BME280;6683;48.506;9.050;2023-05-13T10:26:55;98198.84;;;16.69;65.20
13235;BME280;6683;48.506;9.050;2023-05-13T10:30:00;98198.00;;;16.69;65.17
13235;BME280;6683;48.506;9.050;2023-05-13T10:33:07;98202.31;;;16.70;65.21
13235;BME280;6683;48.506;9.050;2023-05-13T10:36:27;98199.66;;;16.70;65.40
13235;BME280;6683;48.506;9.050;2023-05-13T10:40:03;98200.47;;;16.70;65.47
13235;BME280;6683;48.506;9.050;2023-05-13T10:43:16;98203.72;;;16.72;65.51
13235;BME280;6683;48.506;9.050;2023-05-13T10:46:19;98201.28;;;16.71;65.19
13235;BME280;6683;48.506;9.050;2023-05-13T10:49:31;98195.59;;;16.67;65.13
13235;BME280;6683;48.506;9.050;2023-05-13T10:52:45;98196.84;;;16.65;65.52
13235;BME280;6683;48.506;9.050;2023-05-13T10:55:53;98194.41;;;16.63;65.33
13235;BME280;6683;48.506;9.050;2023-05-13T10:58:57;98196.63;;;16.66;65.24
13235;BME280;6683;48.506;9.050;2023-05-13T11:02:01;98195.16;;;16.70;65.42
13235;BME280;6683;48.506;9.050;2023-05-13T11:05:07;98197.00;;;16.70;65.24
13235;BME280;6683;48.506;9.050;2023-05-13T11:08:10;98191.66;;;16.70;65.21
13235;BME280;6683;48.506;9.050;2023-05-13T11:11:30;98199.66;;;16.70;65.45
13235;BME280;6683;48.506;9.050;2023-05-13T11:14:33;98209.06;;;16.72;65.53
13235;BME280;6683;48.506;9.050;2023-05-13T11:17:36;98206.53;;;16.77;65.32
13235;BME280;6683;48.506;9.050;2023-05-13T11:20:40;98204.44;;;16.79;65.37
13235;BME280;6683;48.506;9.050;2023-05-13T11:23:51;98205.84;;;16.82;65.61
13235;BME280;6683;48.506;9.050;2023-05-13T11:26:55;98210.16;;;16.83;64.95
13235;BME280;6683;48.506;9.050;2023-05-13T11:29:58;98199.25;;;16.85;65.17
13235;BME280;6683;48.506;9.050;2023-05-13T11:33:01;98206.78;;;16.88;64.94
13235;BME280;6683;48.506;9.050;2023-05-13T11:36:09;98203.44;;;16.92;65.12
13235;BME280;6683;48.506;9.050;2023-05-13T11:39:14;98192.69;;;16.99;65.20
13235;BME280;6683;48.506;9.050;2023-05-13T11:42:17;98204.91;;;17.06;64.85
13235;BME280;6683;48.506;9.050;2023-05-13T11:45:22;98199.25;;;17.14;64.98
13235;BME280;6683;48.506;9.050;2023-05-13T11:48:25;98204.59;;;17.26;64.65
13235;BME280;6683;48.506;9.050;2023-05-13T11:51:33;98196.25;;;17.34;64.60
13235;BME280;6683;48.506;9.050;2023-05-13T11:54:44;98195.94;;;17.42;64.66
13235;BME280;6683;48.506;9.050;2023-05-13T11:57:48;98200.16;;;17.49;64.35
13235;BME280;6683;48.506;9.050;2023-05-13T12:00:50;98201.78;;;17.50;64.02
13235;BME280;6683;48.506;9.050;2023-05-13T12:04:00;98199.31;;;17.49;64.09
13235;BME280;6683;48.506;9.050;2023-05-13T12:07:04;98203.03;;;17.48;63.94
13235;BME280;6683;48.506;9.050;2023-05-13T12:10:08;98206.31;;;17.50;64.00
13235;BME280;6683;48.506;9.050;2023-05-13T12:13:11;98210.84;;;17.49;63.82
13235;BME280;6683;48.506;9.050;2023-05-13T12:16:13;98211.66;;;17.50;63.65
13235;BME280;6683;48.506;9.050;2023-05-13T12:19:16;98213.84;;;17.53;63.58
13235;BME280;6683;48.506;9.050;2023-05-13T12:22:22;98214.66;;;17.53;63.51
13235;BME280;6683;48.506;9.050;2023-05-13T12:25:40;98207.47;;;17.54;63.71
13235;BME280;6683;48.506;9.050;2023-05-13T12:28:43;98203.75;;;17.55;63.42
13235;BME280;6683;48.506;9.050;2023-05-13T12:32:04;98209.91;;;17.55;63.74
13235;BME280;6683;48.506;9.050;2023-05-13T12:35:12;98216.41;;;17.60;63.55
13235;BME280;6683;48.506;9.050;2023-05-13T12:38:18;98208.53;;;17.65;63.59
13235;BME280;6683;48.506;9.050;2023-05-13T12:41:21;98208.41;;;17.71;63.30
13235;BME280;6683;48.506;9.050;2023-05-13T12:44:25;98211.44;;;17.75;63.25
13235;BME280;6683;48.506;9.050;2023-05-13T12:47:29;98205.19;;;17.81;63.15
13235;BME280;6683;48.506;9.050;2023-05-13T12:50:32;98205.50;;;17.84;63.20
13235;BME280;6683;48.506;9.050;2023-05-13T12:53:36;98208.91;;;17.91;62.98
13235;BME280;6683;48.506;9.050;2023-05-13T12:56:42;98211.66;;;17.96;62.81
13235;BME280;6683;48.506;9.050;2023-05-13T12:59:45;98217.13;;;18.01;62.74
13235;BME280;6683;48.506;9.050;2023-05-13T13:02:48;98220.63;;;18.02;62.50
13235;BME280;6683;48.506;9.050;2023-05-13T13:05:50;98211.78;;;18.01;62.48
13235;BME280;6683;48.506;9.050;2023-05-13T13:08:54;98209.94;;;18.02;62.58
13235;BME280;6683;48.506;9.050;2023-05-13T13:11:57;98214.59;;;18.06;62.66
13235;BME280;6683;48.506;9.050;2023-05-13T13:14:59;98205.63;;;18.12;62.48
13235;BME280;6683;48.506;9.050;2023-05-13T13:18:02;98203.63;;;18.19;62.29
13235;BME280;6683;48.506;9.050;2023-05-13T13:21:05;98198.06;;;18.21;62.26
13235;BME280;6683;48.506;9.050;2023-05-13T13:24:09;98198.66;;;18.23;62.22
13235;BME280;6683;48.506;9.050;2023-05-13T13:27:11;98197.72;;;18.29;62.24
13235;BME280;6683;48.506;9.050;2023-05-13T13:30:14;98199.19;;;18.36;62.05
13235;BME280;6683;48.506;9.050;2023-05-13T13:33:17;98194.44;;;18.38;61.92
13235;BME280;6683;48.506;9.050;2023-05-13T13:36:20;98199.53;;;18.40;61.97
13235;BME280;6683;48.506;9.050;2023-05-13T13:39:25;98191.91;;;18.44;61.80
13235;BME280;6683;48.506;9.050;2023-05-13T13:42:28;98186.88;;;18.47;61.73
13235;BME280;6683;48.506;9.050;2023-05-13T13:45:31;98187.22;;;18.51;61.65
13235;BME280;6683;48.506;9.050;2023-05-13T13:48:34;98191.59;;;18.57;61.52
13235;BME280;6683;48.506;9.050;2023-05-13T13:51:36;98191.38;;;18.58;61.43
13235;BME280;6683;48.506;9.050;2023-05-13T13:54:40;98177.44;;;18.56;61.33
13235;BME280;6683;48.506;9.050;2023-05-13T13:57:43;98176.63;;;18.56;61.47
13235;BME280;6683;48.506;9.050;2023-05-13T14:00:45;98170.97;;;18.52;61.28
13235;BME280;6683;48.506;9.050;2023-05-13T14:03:49;98168.50;;;18.51;61.31
13235;BME280;6683;48.506;9.050;2023-05-13T14:06:52;98181.53;;;18.47;61.09
13235;BME280;6683;48.506;9.050;2023-05-13T14:09:56;98169.00;;;18.48;61.29
13235;BME280;6683;48.506;9.050;2023-05-13T14:12:59;98167.94;;;18.49;61.28
13235;BME280;6683;48.506;9.050;2023-05-13T14:16:01;98169.31;;;18.51;61.29
13235;BME280;6683;48.506;9.050;2023-05-13T14:19:04;98164.53;;;18.53;61.33
13235;BME280;6683;48.506;9.050;2023-05-13T14:22:06;98166.75;;;18.56;61.46
13235;BME280;6683;48.506;9.050;2023-05-13T14:25:10;98169.75;;;18.60;61.45
13235;BME280;6683;48.506;9.050;2023-05-13T14:28:13;98158.59;;;18.63;61.21
13235;BME280;6683;48.506;9.050;2023-05-13T14:31:17;98165.56;;;18.64;61.10
13235;BME280;6683;48.506;9.050;2023-05-13T14:34:19;98169.88;;;18.65;61.30
13235;BME280;6683;48.506;9.050;2023-05-13T14:37:22;98168.22;;;18.64;61.04
13235;BME280;6683;48.506;9.050;2023-05-13T14:40:26;98170.19;;;18.68;61.21
13235;BME280;6683;48.506;9.050;2023-05-13T14:43:29;98166.56;;;18.74;61.07
13235;BME280;6683;48.506;9.050;2023-05-13T14:46:31;98167.72;;;18.78;60.91
13235;BME280;6683;48.506;9.050;2023-05-13T14:49:36;98158.97;;;18.83;60.81
13235;BME280;6683;48.506;9.050;2023-05-13T14:52:38;98168.03;;;18.82;60.84
13235;BME280;6683;48.506;9.050;2023-05-13T14:55:42;98165.28;;;18.77;60.60
13235;BME280;6683;48.506;9.050;2023-05-13T14:58:45;98167.84;;;18.72;60.61
13235;BME280;6683;48.506;9.050;2023-05-13T15:01:47;98158.34;;;18.64;60.82
13235;BME280;6683;48.506;9.050;2023-05-13T15:04:49;98158.50;;;18.58;60.84
13235;BME280;6683;48.506;9.050;2023-05-13T15:07:52;98160.84;;;18.54;60.92
13235;BME280;6683;48.506;9.050;2023-05-13T15:10:57;98151.31;;;18.47;61.14
13235;BME280;6683;48.506;9.050;2023-05-13T15:14:00;98153.16;;;18.46;61.02
13235;BME280;6683;48.506;9.050;2023-05-13T15:17:04;98148.28;;;18.43;60.88
13235;BME280;6683;48.506;9.050;2023-05-13T15:20:11;98144.78;;;18.43;61.11
13235;BME280;6683;48.506;9.050;2023-05-13T15:23:14;98142.72;;;18.45;61.00
13235;BME280;6683;48.506;9.050;2023-05-13T15:26:18;98141.91;;;18.44;61.16
13235;BME280;6683;48.506;9.050;2023-05-13T15:29:22;98143.53;;;18.45;60.78
13235;BME280;6683;48.506;9.050;2023-05-13T15:32:24;98146.53;;;18.49;61.04
13235;BME280;6683;48.506;9.050;2023-05-13T15:35:27;98130.28;;;18.50;60.95
13235;BME280;6683;48.506;9.050;2023-05-13T15:38:29;98128.97;;;18.53;60.94
13235;BME280;6683;48.506;9.050;2023-05-13T15:41:33;98133.84;;;18.56;60.79
13235;BME280;6683;48.506;9.050;2023-05-13T15:44:36;98136.84;;;18.59;61.02
13235;BME280;6683;48.506;9.050;2023-05-13T15:47:38;98137.22;;;18.63;60.79
13235;BME280;6683;48.506;9.050;2023-05-13T15:50:41;98136.97;;;18.64;60.74
13235;BME280;6683;48.506;9.050;2023-05-13T15:53:43;98129.19;;;18.63;60.88
13235;BME280;6683;48.506;9.050;2023-05-13T15:56:47;98125.44;;;18.64;60.74
13235;BME280;6683;48.506;9.050;2023-05-13T15:59:50;98133.72;;;18.62;60.73
13235;BME280;6683;48.506;9.050;2023-05-13T16:02:52;98131.75;;;18.58;61.07
13235;BME280;6683;48.506;9.050;2023-05-13T16:05:54;98129.56;;;18.55;60.79
13235;BME280;6683;48.506;9.050;2023-05-13T16:08:57;98131.91;;;18.51;60.96
13235;BME280;6683;48.506;9.050;2023-05-13T16:12:03;98124.59;;;18.47;60.93
13235;BME280;6683;48.506;9.050;2023-05-13T16:15:07;98135.78;;;18.44;60.97
13235;BME280;6683;48.506;9.050;2023-05-13T16:18:10;98131.91;;;18.40;61.11
13235;BME280;6683;48.506;9.050;2023-05-13T16:21:12;98129.13;;;18.34;61.22
13235;BME280;6683;48.506;9.050;2023-05-13T16:24:15;98130.41;;;18.32;61.20
13235;BME280;6683;48.506;9.050;2023-05-13T16:27:19;98131.13;;;18.27;61.46